sensor_id;sensor_type;location;lat;lon;timestamp;pressure;altitude;pressure_sealevel;temperature;humidity
7966;BME280;4028;43.272;26.932;2023-07-31T00:01:06;98495.34;;;21.88;100.00
7966;BME280;4028;43.272;26.932;2023-07-31T00:03:31;98498.59;;;21.90;100.00
7966;BME280;4028;43.272;26.932;2023-07-31T00:05:57;98502.25;;;21.95;100.00
7966;BME280;4028;43.272;26.932;2023-07-31T00:08:22;98501.28;;;21.78;100.00
7966;BME280;4028;43.272;26.932;2023-07-31T00:10:51;98513.25;;;21.82;100.00
7966;BME280;4028;43.272;26.932;2023-07-31T00:13:17;98534.91;;;21.87;100.00
7966;BME280;4028;43.272;26.932;2023-07-31T00:15:43;98549.19;;;21.88;100.00
7966;BME280;4028;43.272;26.932;2023-07-31T00:18:08;98534.44;;;21.90;100.00
7966;BME280;4028;43.272;26.932;2023-07-31T00:20:34;98529.78;;;21.86;100.00
7966;BME280;4028;43.272;26.932;2023-07-31T00:22:59;98530.47;;;21.81;98.80
7966;BME280;4028;43.272;26.932;2023-07-31T00:25:24;98537.13;;;21.90;100.00
7966;BME280;4028;43.272;26.932;2023-07-31T00:27:50;98554.84;;;21.98;93.72
7966;BME280;4028;43.272;26.932;2023-07-31T00:30:15;98551.91;;;21.99;89.81
7966;BME280;4028;43.272;26.932;2023-07-31T00:32:41;98522.88;;;22.01;87.94
7966;BME280;4028;43.272;26.932;2023-07-31T00:35:07;98502.97;;;22.02;84.54
7966;BME280;4028;43.272;26.932;2023-07-31T00:37:32;98521.97;;;22.19;87.74
7966;BME280;4028;43.272;26.932;2023-07-31T00:39:58;98543.53;;;22.19;87.50
7966;BME280;4028;43.272;26.932;2023-07-31T00:42:24;98506.19;;;22.11;83.81
7966;BME280;4028;43.272;26.932;2023-07-31T00:44:50;98499.25;;;22.15;90.14
7966;BME280;4028;43.272;26.932;2023-07-31T00:47:15;98505.47;;;22.27;92.46
7966;BME280;4028;43.272;26.932;2023-07-31T00:49:41;98496.78;;;22.25;89.52
7966;BME280;4028;43.272;26.932;2023-07-31T00:52:09;98504.41;;;22.28;88.65
7966;BME280;4028;43.272;26.932;2023-07-31T00:54:35;98497.50;;;22.33;95.67
7966;BME280;4028;43.272;26.932;2023-07-31T00:57:01;98498.06;;;22.35;97.48
7966;BME280;4028;43.272;26.932;2023-07-31T00:59:27;98482.72;;;22.35;96.73
7966;BME280;4028;43.272;26.932;2023-07-31T01:01:53;98479.06;;;22.41;87.64
7966;BME280;4028;43.272;26.932;2023-07-31T01:04:18;98491.03;;;22.45;84.14
7966;BME280;4028;43.272;26.932;2023-07-31T01:07:09;98502.06;;;22.44;85.64
7966;BME280;4028;43.272;26.932;2023-07-31T01:12:27;98496.22;;;22.23;87.92
7966;BME280;4028;43.272;26.932;2023-07-31T01:17:26;98490.59;;;22.13;85.45
7966;BME280;4028;43.272;26.932;2023-07-31T01:19:53;98494.78;;;22.21;85.04
7966;BME280;4028;43.272;26.932;2023-07-31T01:22:34;98493.00;;;22.03;87.93
7966;BME280;4028;43.272;26.932;2023-07-31T01:28:04;98481.69;;;22.13;93.67
7966;BME280;4028;43.272;26.932;2023-07-31T01:30:37;98506.63;;;22.20;93.40
7966;BME280;4028;43.272;26.932;2023-07-31T01:33:06;98507.66;;;22.07;96.03
7966;BME280;4028;43.272;26.932;2023-07-31T01:35:37;98498.16;;;21.93;100.00
7966;BME280;4028;43.272;26.932;2023-07-31T01:38:04;98513.88;;;21.96;100.00
7966;BME280;4028;43.272;26.932;2023-07-31T01:40:30;98516.06;;;21.99;100.00
7966;BME280;4028;43.272;26.932;2023-07-31T01:42:55;98519.25;;;21.96;100.00
7966;BME280;4028;43.272;26.932;2023-07-31T01:45:21;98522.28;;;21.88;100.00
7966;BME280;4028;43.272;26.932;2023-07-31T01:47:46;98518.75;;;21.87;100.00
7966;BME280;4028;43.272;26.932;2023-07-31T01:50:12;98526.03;;;21.87;100.00
7966;BME280;4028;43.272;26.932;2023-07-31T01:52:37;98515.25;;;21.87;100.00
7966;BME280;4028;43.272;26.932;2023-07-31T01:55:03;98515.59;;;21.90;100.00
7966;BME280;4028;43.272;26.932;2023-07-31T01:57:29;98516.19;;;21.80;100.00
7966;BME280;4028;43.272;26.932;2023-07-31T01:59:54;98516.63;;;21.77;100.00
7966;BME280;4028;43.272;26.932;2023-07-31T02:02:20;98514.25;;;21.69;100.00
7966;BME280;4028;43.272;26.932;2023-07-31T02:04:46;98507.09;;;21.51;100.00
7966;BME280;4028;43.272;26.932;2023-07-31T02:07:11;98505.09;;;21.47;100.00
7966;BME280;4028;43.272;26.932;2023-07-31T02:09:37;98516.56;;;21.54;100.00
7966;BME280;4028;43.272;26.932;2023-07-31T02:12:02;98521.34;;;21.40;100.00
7966;BME280;4028;43.272;26.932;2023-07-31T02:14:28;98519.09;;;21.37;100.00
7966;BME280;4028;43.272;26.932;2023-07-31T02:16:53;98514.53;;;21.38;100.00
7966;BME280;4028;43.272;26.932;2023-07-31T02:19:19;98517.34;;;21.43;100.00
7966;BME280;4028;43.272;26.932;2023-07-31T02:21:45;98522.28;;;21.46;100.00
7966;BME280;4028;43.272;26.932;2023-07-31T02:24:10;98529.06;;;21.48;100.00
7966;BME280;4028;43.272;26.932;2023-07-31T02:26:36;98522.75;;;21.54;100.00
7966;BME280;4028;43.272;26.932;2023-07-31T02:29:01;98527.69;;;21.58;100.00
7966;BME280;4028;43.272;26.932;2023-07-31T02:31:27;98501.47;;;21.53;100.00
7966;BME280;4028;43.272;26.932;2023-07-31T02:33:52;98526.31;;;21.67;100.00
7966;BME280;4028;43.272;26.932;2023-07-31T02:36:18;98518.50;;;21.65;100.00
7966;BME280;4028;43.272;26.932;2023-07-31T02:38:44;98511.41;;;21.52;100.00
7966;BME280;4028;43.272;26.932;2023-07-31T02:41:09;98516.00;;;21.64;100.00
7966;BME280;4028;43.272;26.932;2023-07-31T02:43:35;98513.19;;;21.59;100.00
7966;BME280;4028;43.272;26.932;2023-07-31T02:46:00;98510.66;;;21.75;100.00
7966;BME280;4028;43.272;26.932;2023-07-31T02:48:28;98517.44;;;21.78;100.00
7966;BME280;4028;43.272;26.932;2023-07-31T02:50:54;98516.63;;;21.77;100.00
7966;BME280;4028;43.272;26.932;2023-07-31T02:53:19;98508.31;;;21.79;100.00
7966;BME280;4028;43.272;26.932;2023-07-31T02:55:45;98509.00;;;21.74;100.00
7966;BME280;4028;43.272;26.932;2023-07-31T02:58:10;98505.28;;;21.75;100.00
7966;BME280;4028;43.272;26.932;2023-07-31T03:00:36;98507.97;;;21.75;100.00
7966;BME280;4028;43.272;26.932;2023-07-31T03:03:01;98508.78;;;21.76;100.00
7966;BME280;4028;43.272;26.932;2023-07-31T03:05:27;98510.31;;;21.84;100.00
7966;BME280;4028;43.272;26.932;2023-07-31T03:07:52;98514.44;;;21.86;100.00
7966;BME280;4028;43.272;26.932;2023-07-31T03:10:17;98510.69;;;21.87;100.00
7966;BME280;4028;43.272;26.932;2023-07-31T03:12:46;98516.06;;;21.87;100.00
7966;BME280;4028;43.272;26.932;2023-07-31T03:15:12;98514.44;;;21.86;100.00
7966;BME280;4028;43.272;26.932;2023-07-31T03:17:37;98517.22;;;21.79;100.00
7966;BME280;4028;43.272;26.932;2023-07-31T03:20:03;98508.91;;;21.81;100.00
7966;BME280;4028;43.272;26.932;2023-07-31T03:22:29;98516.44;;;21.91;100.00
7966;BME280;4028;43.272;26.932;2023-07-31T03:24:54;98511.50;;;21.88;100.00
7966;BME280;4028;43.272;26.932;2023-07-31T03:27:20;98513.63;;;21.86;100.00
7966;BME280;4028;43.272;26.932;2023-07-31T03:29:45;98515.34;;;21.80;100.00
7966;BME280;4028;43.272;26.932;2023-07-31T03:32:10;98522.84;;;21.78;100.00
7966;BME280;4028;43.272;26.932;2023-07-31T03:34:36;98518.25;;;21.67;100.00
7966;BME280;4028;43.272;26.932;2023-07-31T03:37:01;98515.81;;;21.77;100.00
7966;BME280;4028;43.272;26.932;2023-07-31T03:39:27;98525.28;;;21.79;100.00
7966;BME280;4028;43.272;26.932;2023-07-31T03:41:52;98520.38;;;21.76;100.00
7966;BME280;4028;43.272;26.932;2023-07-31T03:44:18;98508.44;;;21.72;100.00
7966;BME280;4028;43.272;26.932;2023-07-31T03:46:43;98528.22;;;21.78;100.00
7966;BME280;4028;43.272;26.932;2023-07-31T03:49:09;98521.19;;;21.77;100.00
7966;BME280;4028;43.272;26.932;2023-07-31T03:51:34;98523.41;;;21.68;100.00
7966;BME280;4028;43.272;26.932;2023-07-31T03:53:59;98526.19;;;21.62;100.00
7966;BME280;4028;43.272;26.932;2023-07-31T03:56:25;98529.44;;;21.52;100.00
7966;BME280;4028;43.272;26.932;2023-07-31T03:58:50;98525.69;;;21.53;100.00
7966;BME280;4028;43.272;26.932;2023-07-31T04:01:16;98533.50;;;21.43;100.00
7966;BME280;4028;43.272;26.932;2023-07-31T04:03:41;98531.16;;;21.35;100.00
7966;BME280;4028;43.272;26.932;2023-07-31T04:06:07;98532.81;;;21.29;100.00
7966;BME280;4028;43.272;26.932;2023-07-31T04:08:33;98534.69;;;21.28;100.00
7966;BME280;4028;43.272;26.932;2023-07-31T04:10:58;98531.28;;;21.40;100.00
7966;BME280;4028;43.272;26.932;2023-07-31T04:13:23;98530.56;;;21.44;100.00
7966;BME280;4028;43.272;26.932;2023-07-31T04:15:50;98533.97;;;21.82;100.00
7966;BME280;4028;43.272;26.932;2023-07-31T04:18:19;98534.00;;;21.93;100.00
7966;BME280;4028;43.272;26.932;2023-07-31T04:20:45;98528.84;;;22.03;100.00
7966;BME280;4028;43.272;26.932;2023-07-31T04:23:10;98537.31;;;22.19;100.00
7966;BME280;4028;43.272;26.932;2023-07-31T04:25:36;98537.69;;;22.34;100.00
7966;BME280;4028;43.272;26.932;2023-07-31T04:28:01;98546.81;;;22.45;100.00
7966;BME280;4028;43.272;26.932;2023-07-31T04:30:27;98543.53;;;22.54;100.00
7966;BME280;4028;43.272;26.932;2023-07-31T04:32:52;98536.81;;;23.04;100.00
7966;BME280;4028;43.272;26.932;2023-07-31T04:35:18;98547.03;;;23.30;100.00
7966;BME280;4028;43.272;26.932;2023-07-31T04:37:43;98546.22;;;23.18;100.00
7966;BME280;4028;43.272;26.932;2023-07-31T04:40:11;98558.16;;;22.70;100.00
7966;BME280;4028;43.272;26.932;2023-07-31T04:42:37;98548.78;;;22.61;100.00
7966;BME280;4028;43.272;26.932;2023-07-31T04:45:02;98544.59;;;22.89;100.00
7966;BME280;4028;43.272;26.932;2023-07-31T04:47:28;98554.06;;;23.31;100.00
7966;BME280;4028;43.272;26.932;2023-07-31T04:49:53;98554.97;;;23.37;100.00
7966;BME280;4028;43.272;26.932;2023-07-31T04:52:19;98555.22;;;23.35;100.00
7966;BME280;4028;43.272;26.932;2023-07-31T04:54:44;98555.03;;;23.25;100.00
7966;BME280;4028;43.272;26.932;2023-07-31T04:57:10;98561.69;;;23.34;100.00
7966;BME280;4028;43.272;26.932;2023-07-31T04:59:35;98560.81;;;23.46;100.00
7966;BME280;4028;43.272;26.932;2023-07-31T05:02:02;98566.22;;;23.46;100.00
7966;BME280;4028;43.272;26.932;2023-07-31T05:04:27;98567.66;;;23.37;100.00
7966;BME280;4028;43.272;26.932;2023-07-31T05:06:53;98568.72;;;23.35;100.00
7966;BME280;4028;43.272;26.932;2023-07-31T05:09:18;98570.81;;;23.33;100.00
7966;BME280;4028;43.272;26.932;2023-07-31T05:11:44;98577.28;;;23.32;100.00
7966;BME280;4028;43.272;26.932;2023-07-31T05:14:09;98576.00;;;23.35;100.00
7966;BME280;4028;43.272;26.932;2023-07-31T05:16:35;98575.19;;;23.34;100.00
7966;BME280;4028;43.272;26.932;2023-07-31T05:19:00;98573.63;;;23.39;100.00
7966;BME280;4028;43.272;26.932;2023-07-31T05:21:25;98581.09;;;23.48;100.00
7966;BME280;4028;43.272;26.932;2023-07-31T05:23:51;98588.00;;;23.56;100.00
7966;BME280;4028;43.272;26.932;2023-07-31T05:26:16;98598.72;;;23.51;100.00
7966;BME280;4028;43.272;26.932;2023-07-31T05:28:42;98590.25;;;23.47;100.00
7966;BME280;4028;43.272;26.932;2023-07-31T05:31:08;98593.28;;;23.22;100.00
7966;BME280;4028;43.272;26.932;2023-07-31T05:33:33;98598.59;;;23.05;100.00
7966;BME280;4028;43.272;26.932;2023-07-31T05:35:59;98603.00;;;23.23;100.00
7966;BME280;4028;43.272;26.932;2023-07-31T05:38:24;98600.50;;;23.33;100.00
7966;BME280;4028;43.272;26.932;2023-07-31T05:40:50;98596.91;;;23.28;100.00
7966;BME280;4028;43.272;26.932;2023-07-31T05:43:15;98588.88;;;23.45;100.00
7966;BME280;4028;43.272;26.932;2023-07-31T05:45:44;98596.38;;;23.43;100.00
7966;BME280;4028;43.272;26.932;2023-07-31T05:48:09;98593.69;;;23.43;100.00
7966;BME280;4028;43.272;26.932;2023-07-31T05:50:35;98596.78;;;23.23;100.00
7966;BME280;4028;43.272;26.932;2023-07-31T05:53:00;98595.50;;;23.25;100.00
7966;BME280;4028;43.272;26.932;2023-07-31T05:55:26;98603.00;;;23.35;100.00
7966;BME280;4028;43.272;26.932;2023-07-31T05:57:54;98599.06;;;23.14;100.00
7966;BME280;4028;43.272;26.932;2023-07-31T06:00:20;98601.06;;;23.07;100.00
7966;BME280;4028;43.272;26.932;2023-07-31T06:02:47;98595.19;;;23.10;100.00
7966;BME280;4028;43.272;26.932;2023-07-31T06:05:12;98606.00;;;23.10;100.00
7966;BME280;4028;43.272;26.932;2023-07-31T06:07:38;98615.63;;;23.06;100.00
7966;BME280;4028;43.272;26.932;2023-07-31T06:10:03;98608.81;;;23.03;100.00
7966;BME280;4028;43.272;26.932;2023-07-31T06:12:34;98612.44;;;22.97;100.00
7966;BME280;4028;43.272;26.932;2023-07-31T06:15:00;98625.00;;;22.92;100.00
7966;BME280;4028;43.272;26.932;2023-07-31T06:17:25;98622.66;;;22.83;100.00
7966;BME280;4028;43.272;26.932;2023-07-31T06:19:51;98621.34;;;22.86;100.00
7966;BME280;4028;43.272;26.932;2023-07-31T06:22:17;98623.25;;;22.97;100.00
7966;BME280;4028;43.272;26.932;2023-07-31T06:24:43;98608.81;;;22.92;100.00
7966;BME280;4028;43.272;26.932;2023-07-31T06:27:09;98619.38;;;23.05;100.00
7966;BME280;4028;43.272;26.932;2023-07-31T06:29:35;98628.53;;;23.04;100.00
7966;BME280;4028;43.272;26.932;2023-07-31T06:32:00;98631.00;;;22.94;100.00
7966;BME280;4028;43.272;26.932;2023-07-31T06:34:26;98628.50;;;22.80;100.00
7966;BME280;4028;43.272;26.932;2023-07-31T06:36:51;98636.34;;;22.82;100.00
7966;BME280;4028;43.272;26.932;2023-07-31T06:39:18;98638.34;;;22.87;100.00
7966;BME280;4028;43.272;26.932;2023-07-31T06:41:43;98641.06;;;22.87;100.00
7966;BME280;4028;43.272;26.932;2023-07-31T06:44:09;98640.84;;;23.00;100.00
7966;BME280;4028;43.272;26.932;2023-07-31T06:46:35;98640.34;;;23.03;100.00
7966;BME280;4028;43.272;26.932;2023-07-31T06:49:00;98644.22;;;23.07;100.00
7966;BME280;4028;43.272;26.932;2023-07-31T06:51:26;98647.53;;;23.09;100.00
7966;BME280;4028;43.272;26.932;2023-07-31T06:53:51;98639.31;;;23.04;100.00
7966;BME280;4028;43.272;26.932;2023-07-31T06:56:17;98648.56;;;23.08;100.00
7966;BME280;4028;43.272;26.932;2023-07-31T06:58:42;98648.91;;;23.12;100.00
7966;BME280;4028;43.272;26.932;2023-07-31T07:01:08;98652.69;;;23.11;100.00
7966;BME280;4028;43.272;26.932;2023-07-31T07:03:33;98651.50;;;23.06;100.00
7966;BME280;4028;43.272;26.932;2023-07-31T07:05:59;98647.19;;;23.05;100.00
7966;BME280;4028;43.272;26.932;2023-07-31T07:08:24;98649.63;;;23.07;100.00
7966;BME280;4028;43.272;26.932;2023-07-31T07:10:50;98648.00;;;23.06;100.00
7966;BME280;4028;43.272;26.932;2023-07-31T07:13:16;98652.31;;;23.19;100.00
7966;BME280;4028;43.272;26.932;2023-07-31T07:15:47;98659.22;;;23.26;100.00
7966;BME280;4028;43.272;26.932;2023-07-31T07:18:13;98658.97;;;23.40;100.00
7966;BME280;4028;43.272;26.932;2023-07-31T07:20:39;98662.13;;;23.37;100.00
7966;BME280;4028;43.272;26.932;2023-07-31T07:23:05;98669.53;;;23.41;100.00
7966;BME280;4028;43.272;26.932;2023-07-31T07:25:30;98670.09;;;23.55;100.00
7966;BME280;4028;43.272;26.932;2023-07-31T07:27:56;98670.56;;;23.52;100.00
7966;BME280;4028;43.272;26.932;2023-07-31T07:30:21;98675.59;;;23.48;100.00
7966;BME280;4028;43.272;26.932;2023-07-31T07:32:47;98683.03;;;23.41;100.00
7966;BME280;4028;43.272;26.932;2023-07-31T07:35:13;98659.47;;;23.25;100.00
7966;BME280;4028;43.272;26.932;2023-07-31T07:37:38;98684.66;;;23.42;100.00
7966;BME280;4028;43.272;26.932;2023-07-31T07:40:04;98690.56;;;23.39;100.00
7966;BME280;4028;43.272;26.932;2023-07-31T07:42:30;98695.59;;;23.35;100.00
7966;BME280;4028;43.272;26.932;2023-07-31T07:44:56;98698.88;;;23.38;100.00
7966;BME280;4028;43.272;26.932;2023-07-31T07:47:21;98690.34;;;23.29;100.00
7966;BME280;4028;43.272;26.932;2023-07-31T07:49:47;98702.63;;;23.37;100.00
7966;BME280;4028;43.272;26.932;2023-07-31T07:52:12;98704.47;;;23.48;100.00
7966;BME280;4028;43.272;26.932;2023-07-31T07:54:38;98701.34;;;23.39;100.00
7966;BME280;4028;43.272;26.932;2023-07-31T07:57:03;98701.25;;;23.34;100.00
7966;BME280;4028;43.272;26.932;2023-07-31T07:59:29;98700.03;;;23.42;100.00
7966;BME280;4028;43.272;26.932;2023-07-31T08:01:54;98711.69;;;23.30;100.00
7966;BME280;4028;43.272;26.932;2023-07-31T08:04:20;98710.47;;;23.38;100.00
7966;BME280;4028;43.272;26.932;2023-07-31T08:06:45;98707.34;;;23.29;100.00
7966;BME280;4028;43.272;26.932;2023-07-31T08:09:11;98721.06;;;23.16;100.00
7966;BME280;4028;43.272;26.932;2023-07-31T08:11:36;98717.09;;;23.19;100.00
7966;BME280;4028;43.272;26.932;2023-07-31T08:14:02;98723.28;;;23.07;100.00
7966;BME280;4028;43.272;26.932;2023-07-31T08:16:27;98720.97;;;23.11;100.00
7966;BME280;4028;43.272;26.932;2023-07-31T08:18:53;98722.13;;;23.15;100.00
7966;BME280;4028;43.272;26.932;2023-07-31T08:21:19;98712.75;;;23.06;100.00
7966;BME280;4028;43.272;26.932;2023-07-31T08:23:44;98731.50;;;23.01;100.00
7966;BME280;4028;43.272;26.932;2023-07-31T08:26:19;98730.94;;;22.99;100.00
7966;BME280;4028;43.272;26.932;2023-07-31T08:28:44;98728.44;;;22.97;100.00
7966;BME280;4028;43.272;26.932;2023-07-31T08:31:10;98741.72;;;22.99;100.00
7966;BME280;4028;43.272;26.932;2023-07-31T08:33:37;98739.84;;;22.99;100.00
7966;BME280;4028;43.272;26.932;2023-07-31T08:36:02;98729.56;;;22.66;100.00
7966;BME280;4028;43.272;26.932;2023-07-31T08:38:28;98737.44;;;22.68;100.00
7966;BME280;4028;43.272;26.932;2023-07-31T08:40:56;98743.78;;;22.73;100.00
7966;BME280;4028;43.272;26.932;2023-07-31T08:43:22;98746.22;;;22.63;100.00
7966;BME280;4028;43.272;26.932;2023-07-31T08:45:50;98743.47;;;22.51;100.00
7966;BME280;4028;43.272;26.932;2023-07-31T08:48:17;98751.31;;;22.41;100.00
7966;BME280;4028;43.272;26.932;2023-07-31T08:50:43;98748.63;;;22.41;100.00
7966;BME280;4028;43.272;26.932;2023-07-31T08:53:08;98751.09;;;22.43;100.00
7966;BME280;4028;43.272;26.932;2023-07-31T08:55:35;98744.97;;;22.36;100.00
7966;BME280;4028;43.272;26.932;2023-07-31T08:58:03;98751.09;;;22.43;100.00
7966;BME280;4028;43.272;26.932;2023-07-31T09:00:29;98760.59;;;22.45;100.00
7966;BME280;4028;43.272;26.932;2023-07-31T09:03:03;98754.38;;;22.15;100.00
7966;BME280;4028;43.272;26.932;2023-07-31T09:05:32;98756.50;;;22.13;100.00
7966;BME280;4028;43.272;26.932;2023-07-31T09:08:00;98753.94;;;22.18;100.00
7966;BME280;4028;43.272;26.932;2023-07-31T09:10:27;98761.50;;;22.39;100.00
7966;BME280;4028;43.272;26.932;2023-07-31T09:12:52;98760.81;;;22.44;100.00
7966;BME280;4028;43.272;26.932;2023-07-31T09:15:18;98756.50;;;22.54;100.00
7966;BME280;4028;43.272;26.932;2023-07-31T09:17:44;98753.69;;;22.49;100.00
7966;BME280;4028;43.272;26.932;2023-07-31T09:20:15;98745.44;;;22.33;100.00
7966;BME280;4028;43.272;26.932;2023-07-31T09:22:40;98753.06;;;22.36;100.00
7966;BME280;4028;43.272;26.932;2023-07-31T09:25:20;98755.44;;;22.44;100.00
7966;BME280;4028;43.272;26.932;2023-07-31T09:28:04;98759.44;;;22.53;100.00
7966;BME280;4028;43.272;26.932;2023-07-31T09:30:30;98757.56;;;22.53;100.00
7966;BME280;4028;43.272;26.932;2023-07-31T09:33:06;98752.06;;;22.60;100.00
7966;BME280;4028;43.272;26.932;2023-07-31T09:35:34;98754.66;;;22.67;100.00
7966;BME280;4028;43.272;26.932;2023-07-31T09:38:03;98748.81;;;22.70;100.00
7966;BME280;4028;43.272;26.932;2023-07-31T09:40:34;98751.13;;;22.66;100.00
7966;BME280;4028;43.272;26.932;2023-07-31T09:43:04;98748.00;;;22.69;100.00
7966;BME280;4028;43.272;26.932;2023-07-31T09:45:34;98759.03;;;22.68;100.00
7966;BME280;4028;43.272;26.932;2023-07-31T09:47:59;98748.56;;;22.60;100.00
7966;BME280;4028;43.272;26.932;2023-07-31T09:50:25;98745.16;;;22.64;100.00
7966;BME280;4028;43.272;26.932;2023-07-31T09:52:52;98749.63;;;22.70;100.00
7966;BME280;4028;43.272;26.932;2023-07-31T09:55:18;98748.81;;;22.70;100.00
7966;BME280;4028;43.272;26.932;2023-07-31T09:57:47;98751.88;;;22.73;100.00
7966;BME280;4028;43.272;26.932;2023-07-31T10:00:14;98756.22;;;22.74;100.00
7966;BME280;4028;43.272;26.932;2023-07-31T10:02:41;98750.13;;;22.79;100.00
7966;BME280;4028;43.272;26.932;2023-07-31T10:05:07;98757.53;;;22.83;100.00
7966;BME280;4028;43.272;26.932;2023-07-31T10:07:39;98753.16;;;22.82;100.00
7966;BME280;4028;43.272;26.932;2023-07-31T10:10:07;98744.19;;;22.89;100.00
7966;BME280;4028;43.272;26.932;2023-07-31T10:12:34;98751.31;;;22.83;100.00
7966;BME280;4028;43.272;26.932;2023-07-31T10:15:01;98750.00;;;22.86;100.00
7966;BME280;4028;43.272;26.932;2023-07-31T10:17:28;98752.28;;;22.89;100.00
7966;BME280;4028;43.272;26.932;2023-07-31T10:19:55;98750.72;;;22.93;100.00
7966;BME280;4028;43.272;26.932;2023-07-31T10:22:22;98750.66;;;22.99;100.00
7966;BME280;4028;43.272;26.932;2023-07-31T10:24:48;98756.84;;;23.00;100.00
7966;BME280;4028;43.272;26.932;2023-07-31T10:27:14;98749.47;;;23.07;100.00
7966;BME280;4028;43.272;26.932;2023-07-31T10:29:41;98749.38;;;23.14;100.00
7966;BME280;4028;43.272;26.932;2023-07-31T10:32:08;98746.41;;;23.15;100.00
7966;BME280;4028;43.272;26.932;2023-07-31T10:34:36;98749.47;;;23.30;100.00
7966;BME280;4028;43.272;26.932;2023-07-31T10:37:40;98749.09;;;23.39;100.00
7966;BME280;4028;43.272;26.932;2023-07-31T10:40:11;98737.44;;;23.61;100.00
7966;BME280;4028;43.272;26.932;2023-07-31T10:45:10;98725.97;;;23.95;100.00
7966;BME280;4028;43.272;26.932;2023-07-31T10:47:38;98723.09;;;24.13;100.00
7966;BME280;4028;43.272;26.932;2023-07-31T10:50:18;98717.88;;;24.23;100.00
7966;BME280;4028;43.272;26.932;2023-07-31T10:52:54;98716.31;;;24.39;100.00
7966;BME280;4028;43.272;26.932;2023-07-31T10:58:17;98698.00;;;24.97;100.00
7966;BME280;4028;43.272;26.932;2023-07-31T11:00:44;98699.69;;;25.36;100.00
7966;BME280;4028;43.272;26.932;2023-07-31T11:03:12;98690.22;;;25.78;100.00
7966;BME280;4028;43.272;26.932;2023-07-31T11:06:11;98682.41;;;25.81;100.00
7966;BME280;4028;43.272;26.932;2023-07-31T11:08:47;98669.94;;;25.80;100.00
7966;BME280;4028;43.272;26.932;2023-07-31T11:11:16;98683.44;;;25.75;100.00
7966;BME280;4028;43.272;26.932;2023-07-31T11:13:44;98681.88;;;25.62;100.00
7966;BME280;4028;43.272;26.932;2023-07-31T11:16:13;98682.63;;;25.36;100.00
7966;BME280;4028;43.272;26.932;2023-07-31T11:18:40;98687.91;;;25.26;100.00
7966;BME280;4028;43.272;26.932;2023-07-31T11:21:07;98690.81;;;25.19;100.00
7966;BME280;4028;43.272;26.932;2023-07-31T11:23:33;98680.22;;;25.01;100.00
7966;BME280;4028;43.272;26.932;2023-07-31T11:25:59;98689.25;;;24.89;100.00
7966;BME280;4028;43.272;26.932;2023-07-31T11:28:25;98688.03;;;24.80;100.00
7966;BME280;4028;43.272;26.932;2023-07-31T11:30:50;98682.28;;;24.77;100.00
7966;BME280;4028;43.272;26.932;2023-07-31T11:33:16;98678.94;;;24.70;100.00
7966;BME280;4028;43.272;26.932;2023-07-31T11:35:47;98679.13;;;24.63;100.00
7966;BME280;4028;43.272;26.932;2023-07-31T11:38:27;98673.78;;;24.68;100.00
7966;BME280;4028;43.272;26.932;2023-07-31T11:40:54;98663.97;;;24.62;100.00
7966;BME280;4028;43.272;26.932;2023-07-31T11:43:20;98668.59;;;24.67;100.00
7966;BME280;4028;43.272;26.932;2023-07-31T11:45:51;98671.72;;;24.75;100.00
7966;BME280;4028;43.272;26.932;2023-07-31T11:48:28;98666.53;;;24.90;100.00
7966;BME280;4028;43.272;26.932;2023-07-31T11:50:57;98657.94;;;24.94;100.00
7966;BME280;4028;43.272;26.932;2023-07-31T11:53:40;98656.59;;;25.13;100.00
7966;BME280;4028;43.272;26.932;2023-07-31T11:56:07;98658.38;;;25.24;100.00
7966;BME280;4028;43.272;26.932;2023-07-31T11:58:34;98652.34;;;25.39;100.00
7966;BME280;4028;43.272;26.932;2023-07-31T12:01:01;98641.31;;;25.46;100.00
7966;BME280;4028;43.272;26.932;2023-07-31T12:03:27;98649.00;;;25.76;100.00
7966;BME280;4028;43.272;26.932;2023-07-31T12:05:53;98646.75;;;25.95;100.00
7966;BME280;4028;43.272;26.932;2023-07-31T12:08:23;98638.16;;;26.03;100.00
7966;BME280;4028;43.272;26.932;2023-07-31T12:10:53;98635.47;;;26.03;100.00
7966;BME280;4028;43.272;26.932;2023-07-31T12:13:24;98625.16;;;26.05;100.00
7966;BME280;4028;43.272;26.932;2023-07-31T12:16:00;98629.59;;;26.11;100.00
7966;BME280;4028;43.272;26.932;2023-07-31T12:18:28;98619.84;;;26.42;100.00
7966;BME280;4028;43.272;26.932;2023-07-31T12:20:58;98614.06;;;26.70;100.00
7966;BME280;4028;43.272;26.932;2023-07-31T12:23:26;98613.06;;;26.87;100.00
7966;BME280;4028;43.272;26.932;2023-07-31T12:26:02;98600.94;;;27.00;100.00
7966;BME280;4028;43.272;26.932;2023-07-31T12:28:27;98602.44;;;26.80;100.00
7966;BME280;4028;43.272;26.932;2023-07-31T12:30:57;98602.09;;;27.09;100.00
7966;BME280;4028;43.272;26.932;2023-07-31T12:33:24;98601.94;;;27.36;100.00
7966;BME280;4028;43.272;26.932;2023-07-31T12:35:49;98594.59;;;27.36;100.00
7966;BME280;4028;43.272;26.932;2023-07-31T12:38:15;98590.91;;;27.00;100.00
7966;BME280;4028;43.272;26.932;2023-07-31T12:40:41;98584.19;;;27.08;100.00
7966;BME280;4028;43.272;26.932;2023-07-31T12:43:07;98590.34;;;26.98;100.00
7966;BME280;4028;43.272;26.932;2023-07-31T12:45:34;98578.50;;;26.67;100.00
7966;BME280;4028;43.272;26.932;2023-07-31T12:48:00;98577.66;;;26.66;100.00
7966;BME280;4028;43.272;26.932;2023-07-31T12:50:26;98581.94;;;27.00;100.00
7966;BME280;4028;43.272;26.932;2023-07-31T12:52:53;98581.66;;;27.01;100.00
7966;BME280;4028;43.272;26.932;2023-07-31T12:55:19;98582.44;;;26.91;100.00
7966;BME280;4028;43.272;26.932;2023-07-31T12:57:46;98581.06;;;26.89;100.00
7966;BME280;4028;43.272;26.932;2023-07-31T13:00:12;98584.31;;;26.91;100.00
7966;BME280;4028;43.272;26.932;2023-07-31T13:02:38;98579.84;;;27.12;100.00
7966;BME280;4028;43.272;26.932;2023-07-31T13:05:03;98575.03;;;27.24;100.00
7966;BME280;4028;43.272;26.932;2023-07-31T13:07:29;98576.13;;;27.28;100.00
7966;BME280;4028;43.272;26.932;2023-07-31T13:09:54;98578.28;;;27.31;100.00
7966;BME280;4028;43.272;26.932;2023-07-31T13:12:20;98582.38;;;27.34;100.00